Time;durP1;ratioP1;P1;durP2;ratioP2;P2;SDS_P1;SDS_P2;PMS_P1;PMS_P2;Temp;Humidity;BMP_temperature;BMP_pressure;BME280_temperature;BME280_humidity;BME280_pressure;Samples;Min_cycle;Max_cycle;Signal;HPM_P1;HPM_P2
2022/03/06 00:01:25;;;;;;;10.03;6.10;;;;;;;-0.34;51.25;101150.97;1758529;81;25624;-72
2022/03/06 00:03:53;;;;;;;11.45;6.58;;;;;;;-0.32;51.24;101150.72;1758509;81;25670;-74
2022/03/06 00:06:20;;;;;;;10.60;6.42;;;;;;;-0.31;51.40;101156.35;1758737;81;27282;-72
2022/03/06 00:08:47;;;;;;;11.75;7.37;;;;;;;-0.31;51.46;101158.48;1758992;81;25662;-72
2022/03/06 00:11:13;;;;;;;13.32;7.70;;;;;;;-0.29;51.45;101160.94;1802896;79;25401;-74
2022/03/06 00:13:40;;;;;;;14.85;7.87;;;;;;;-0.28;51.57;101159.39;1801597;79;25621;-71
2022/03/06 00:16:06;;;;;;;15.13;8.25;;;;;;;-0.27;51.52;101161.03;1802002;79;25535;-71
2022/03/06 00:18:36;;;;;;;12.10;8.08;;;;;;;-0.25;51.52;101165.62;1775157;79;27329;-73
2022/03/06 00:21:01;;;;;;;13.03;8.48;;;;;;;-0.25;51.53;101164.28;1801696;79;25722;-72
2022/03/06 00:23:28;;;;;;;12.40;7.53;;;;;;;-0.26;51.79;101160.51;1802012;79;25392;-71
2022/03/06 00:25:54;;;;;;;10.88;7.40;;;;;;;-0.25;51.77;101156.83;1774957;79;25698;-72
2022/03/06 00:28:21;;;;;;;13.25;6.85;;;;;;;-0.28;51.82;101158.06;1801402;79;25443;-72
2022/03/06 00:30:48;;;;;;;71.60;66.10;;;;;;;-0.28;51.78;101159.39;1800970;79;27423;-72
2022/03/06 00:33:15;;;;;;;13.43;8.80;;;;;;;-0.27;51.85;101155.72;1800486;79;25447;-72
2022/03/06 00:35:41;;;;;;;14.65;8.85;;;;;;;-0.28;52.02;101159.39;1801880;79;25535;-73
2022/03/06 00:38:08;;;;;;;11.03;7.72;;;;;;;-0.29;52.10;101162.27;1801493;79;25692;-72
2022/03/06 00:40:34;;;;;;;11.83;7.00;;;;;;;-0.33;52.09;101151.77;1801721;79;25621;-72
2022/03/06 00:43:01;;;;;;;10.30;6.78;;;;;;;-0.32;52.16;101156.05;1775315;79;27259;-73
2022/03/06 00:45:27;;;;;;;14.90;7.12;;;;;;;-0.31;52.16;101159.02;1801159;79;25393;-72
2022/03/06 00:47:53;;;;;;;14.45;6.58;;;;;;;-0.34;52.30;101146.98;1749631;79;26979;-73
2022/03/06 00:50:20;;;;;;;15.95;7.45;;;;;;;-0.34;52.27;101144.32;1801753;79;25641;-72
2022/03/06 00:52:46;;;;;;;85.55;79.30;;;;;;;-0.32;52.27;101146.73;1801180;79;25676;-72
2022/03/06 00:55:13;;;;;;;84.07;77.72;;;;;;;-0.34;52.29;101147.47;1801775;79;27906;-72
2022/03/06 00:57:39;;;;;;;85.45;79.00;;;;;;;-0.34;52.16;101135.51;1801579;79;25692;-71
2022/03/06 01:00:08;;;;;;;86.78;80.28;;;;;;;-0.37;52.07;101139.43;1802110;79;25412;-71
2022/03/06 01:02:34;;;;;;;85.95;79.15;;;;;;;-0.34;52.18;101144.81;1801674;79;25838;-71
2022/03/06 01:05:00;;;;;;;84.97;78.37;;;;;;;-0.37;52.06;101139.43;1801937;79;25433;-71
2022/03/06 01:07:28;;;;;;;86.05;79.45;;;;;;;-0.37;52.26;101143.41;1801448;79;27362;-72
2022/03/06 01:09:54;;;;;;;15.18;9.50;;;;;;;-0.38;52.34;101140.45;1800454;79;25713;-72
2022/03/06 01:12:22;;;;;;;13.18;8.23;;;;;;;-0.36;52.44;101145.55;1798653;79;25378;-73
2022/03/06 01:14:49;;;;;;;13.15;7.70;;;;;;;-0.40;52.27;101136.67;1799177;79;25622;-73
2022/03/06 01:17:16;;;;;;;9.63;6.70;;;;;;;-0.42;52.61;101132.61;1798876;79;25744;-74
2022/03/06 01:19:43;;;;;;;10.45;7.00;;;;;;;-0.47;52.54;101135.91;1798882;79;27470;-74
2022/03/06 01:22:09;;;;;;;12.55;7.10;;;;;;;-0.52;52.44;101133.08;1799018;79;25664;-74
2022/03/06 01:24:36;;;;;;;12.05;7.15;;;;;;;-0.53;52.78;101129.30;1798380;79;25675;-73
2022/03/06 01:27:02;;;;;;;11.30;7.40;;;;;;;-0.57;52.73;101121.75;1799184;79;26195;-72
2022/03/06 01:29:29;;;;;;;11.45;6.78;;;;;;;-0.58;52.73;101121.97;1798866;79;25593;-72
2022/03/06 01:31:55;;;;;;;12.90;7.95;;;;;;;-0.58;53.04;101126.78;1798976;79;27390;-72
2022/03/06 01:34:22;;;;;;;10.18;7.15;;;;;;;-0.61;52.95;101121.89;1770520;79;25330;-71
2022/03/06 01:36:48;;;;;;;12.28;7.87;;;;;;;-0.62;53.13;101124.77;1798950;79;25388;-72
2022/03/06 01:39:18;;;;;;;11.78;7.33;;;;;;;-0.64;53.29;101122.84;1800945;79;26043;-71
2022/03/06 01:41:47;;;;;;;13.10;7.35;;;;;;;-0.66;53.51;101124.38;1799717;79;25443;-72
2022/03/06 01:44:14;;;;;;;12.65;7.80;;;;;;;-0.66;53.62;101122.25;1799295;79;27432;-72
2022/03/06 01:46:41;;;;;;;13.38;8.13;;;;;;;-0.66;54.14;101123.58;1798525;79;25616;-72
2022/03/06 01:49:07;;;;;;;13.38;9.00;;;;;;;-0.67;54.16;101122.73;1799277;79;25666;-72
2022/03/06 01:51:33;;;;;;;16.73;9.48;;;;;;;-0.68;54.31;101115.81;1799012;79;25958;-72
2022/03/06 01:54:00;;;;;;;18.70;10.05;;;;;;;-0.68;54.47;101117.14;1770240;79;25641;-72
2022/03/06 01:56:26;;;;;;;15.60;9.18;;;;;;;-0.67;54.57;101113.96;1770873;79;27056;-72
2022/03/06 01:58:54;;;;;;;15.40;9.50;;;;;;;-0.66;54.60;101116.41;1799105;79;25436;-72
2022/03/06 02:01:20;;;;;;;11.80;8.78;;;;;;;-0.67;54.50;101117.42;1798950;79;25676;-73
2022/03/06 02:03:47;;;;;;;12.80;9.50;;;;;;;-0.66;54.54;101116.94;1798991;79;25618;-72
2022/03/06 02:06:16;;;;;;;13.25;8.93;;;;;;;-0.66;54.73;101115.60;1799275;79;25597;-72
2022/03/06 02:08:48;;;;;;;15.68;8.43;;;;;;;-0.67;54.65;101118.75;1800173;79;27300;-71
2022/03/06 02:11:17;;;;;;;19.52;9.58;;;;;;;-0.66;55.07;101115.08;1669507;84;25872;-72
2022/03/06 02:13:44;;;;;;;17.85;9.75;;;;;;;-0.66;55.23;101114.27;1668682;86;25558;-72
2022/03/06 02:16:12;;;;;;;14.87;10.65;;;;;;;-0.66;55.32;101106.30;1668531;86;26301;-71
2022/03/06 02:18:38;;;;;;;17.10;11.03;;;;;;;-0.66;55.54;101108.44;1668631;86;25466;-72
2022/03/06 02:21:11;;;;;;;16.05;9.30;;;;;;;-0.67;55.63;101108.65;1668814;86;27431;-72
2022/03/06 02:23:39;;;;;;;11.55;8.33;;;;;;;-0.66;55.88;101104.97;1668409;86;25692;-72
2022/03/06 02:26:08;;;;;;;13.53;8.28;;;;;;;-0.67;55.78;101103.33;1668744;86;25682;-72
2022/03/06 02:28:35;;;;;;;10.68;7.80;;;;;;;-0.68;55.81;101100.36;1644655;86;25986;-72
2022/03/06 02:31:02;;;;;;;11.55;8.25;;;;;;;-0.69;55.83;101100.89;1668569;86;25729;-72
2022/03/06 02:33:28;;;;;;;18.12;11.60;;;;;;;-0.71;55.55;101098.97;1668677;86;27626;-72
2022/03/06 02:35:55;;;;;;;23.42;13.88;;;;;;;-0.70;55.65;101098.44;1668659;86;25717;-72
2022/03/06 02:38:25;;;;;;;19.55;12.90;;;;;;;-0.69;55.61;101097.42;1668992;86;25501;-71
2022/03/06 02:40:53;;;;;;;20.70;13.00;;;;;;;-0.69;55.87;101096.90;1669798;86;25721;-71
2022/03/06 02:43:20;;;;;;;19.27;12.93;;;;;;;-0.70;55.91;101087.29;1645964;86;25683;-71
2022/03/06 02:45:47;;;;;;;15.63;9.85;;;;;;;-0.69;55.83;101094.77;1668379;86;28070;-71
2022/03/06 02:48:13;;;;;;;12.18;7.45;;;;;;;-0.69;55.68;101089.45;1668573;86;25711;-72
2022/03/06 02:50:40;;;;;;;12.70;7.75;;;;;;;-0.70;55.50;101096.59;1668621;86;25678;-72
2022/03/06 02:53:10;;;;;;;15.55;7.90;;;;;;;-0.71;55.16;101096.83;1668536;86;25626;-72
2022/03/06 02:55:38;;;;;;;14.58;7.78;;;;;;;-0.71;55.26;101094.17;1657140;85;25743;-72
2022/03/06 02:58:05;;;;;;;12.88;8.18;;;;;;;-0.71;55.17;101094.17;1687299;85;27989;-72
2022/03/06 03:00:32;;;;;;;14.18;7.92;;;;;;;-0.72;55.17;101085.89;1688933;79;25661;-72
2022/03/06 03:02:58;;;;;;;12.13;7.47;;;;;;;-0.71;55.19;101091.52;1799248;79;25605;-72
2022/03/06 03:05:26;;;;;;;14.65;9.33;;;;;;;-0.71;55.13;101091.52;1799257;79;25648;-72
2022/03/06 03:07:53;;;;;;;16.30;9.03;;;;;;;-0.72;55.08;101086.70;1798763;79;25673;-72
2022/03/06 03:10:22;;;;;;;15.93;9.58;;;;;;;-0.71;55.20;101091.52;1790793;79;27537;-73
2022/03/06 03:12:49;;;;;;;18.85;10.23;;;;;;;-0.71;55.09;101082.22;1771973;81;25669;-71
2022/03/06 03:15:16;;;;;;;18.82;9.10;;;;;;;-0.71;55.15;101096.83;1771173;81;25719;-72
2022/03/06 03:17:43;;;;;;;20.37;10.35;;;;;;;-0.71;55.20;101094.98;1771277;81;25664;-71
2022/03/06 03:20:11;;;;;;;18.92;11.30;;;;;;;-0.70;55.16;101089.14;1772040;80;25543;-72
2022/03/06 03:22:38;;;;;;;17.45;10.93;;;;;;;-0.72;55.17;101093.34;1771795;80;27915;-72
2022/03/06 03:25:07;;;;;;;15.32;9.35;;;;;;;-0.71;55.17;101098.97;1771825;81;25669;-71
2022/03/06 03:27:33;;;;;;;19.85;10.45;;;;;;;-0.71;55.15;101094.98;1743006;80;25641;-71
2022/03/06 03:30:00;;;;;;;20.48;9.55;;;;;;;-0.70;55.13;101094.45;1743532;80;25645;-71
2022/03/06 03:32:26;;;;;;;17.82;10.93;;;;;;;-0.69;55.24;101092.11;1771764;81;25540;-71
2022/03/06 03:34:52;;;;;;;18.07;11.03;;;;;;;-0.70;55.01;101097.11;1744191;80;27420;-71
2022/03/06 03:37:19;;;;;;;19.42;11.65;;;;;;;-0.69;55.09;101097.42;1771724;80;25618;-71
2022/03/06 03:39:45;;;;;;;21.97;11.50;;;;;;;-0.71;55.02;101092.84;1773432;81;25276;-71
2022/03/06 03:42:12;;;;;;;20.40;10.63;;;;;;;-0.69;55.21;101097.42;1771929;80;25781;-71
2022/03/06 03:44:38;;;;;;;17.57;10.90;;;;;;;-0.69;55.54;101095.58;1771559;81;25645;-72
2022/03/06 03:47:05;;;;;;;19.35;11.20;;;;;;;-0.68;55.68;101092.39;1771823;81;28057;-71
2022/03/06 03:49:31;;;;;;;15.95;10.72;;;;;;;-0.68;55.84;101091.06;1771808;80;26043;-71
2022/03/06 03:51:58;;;;;;;14.50;9.18;;;;;;;-0.68;56.13;101086.59;1771755;80;25622;-71
2022/03/06 03:54:24;;;;;;;17.50;9.75;;;;;;;-0.67;56.15;101090.85;1771859;81;25739;-71
2022/03/06 03:56:50;;;;;;;16.27;8.85;;;;;;;-0.67;56.26;101089.52;1771884;80;25226;-71
2022/03/06 03:59:17;;;;;;;13.93;8.83;;;;;;;-0.68;56.23;101091.06;1771227;81;27323;-71
2022/03/06 04:01:43;;;;;;;16.52;9.95;;;;;;;-0.68;56.03;101099.03;1771720;81;25680;-71
2022/03/06 04:04:09;;;;;;;18.70;11.20;;;;;;;-0.68;55.88;101095.05;1771987;80;25561;-71
2022/03/06 04:06:35;;;;;;;16.52;11.18;;;;;;;-0.69;55.82;101102.73;1771687;81;25704;-71
2022/03/06 04:09:01;;;;;;;17.57;11.60;;;;;;;-0.70;55.90;101096.59;1772635;81;25345;-71
2022/03/06 04:11:28;;;;;;;21.68;12.85;;;;;;;-0.71;55.78;101098.97;1784683;79;27443;-71
2022/03/06 04:13:54;;;;;;;20.12;12.88;;;;;;;-0.71;55.98;101102.14;1768452;80;25531;-71
2022/03/06 04:16:21;;;;;;;19.65;12.63;;;;;;;-0.72;55.89;101102.64;1743250;80;25670;-71
2022/03/06 04:18:47;;;;;;;20.43;13.00;;;;;;;-0.72;55.78;101108.47;1790800;80;25630;-72
2022/03/06 04:21:13;;;;;;;22.20;13.58;;;;;;;-0.72;55.75;101107.95;1790887;80;25686;-72
2022/03/06 04:23:40;;;;;;;20.68;13.65;;;;;;;-0.73;55.78;101104.17;1790890;79;27499;-72
2022/03/06 04:26:06;;;;;;;21.80;13.75;;;;;;;-0.74;56.00;101103.89;1790882;80;25531;-72
2022/03/06 04:28:33;;;;;;;21.68;13.78;;;;;;;-0.76;55.91;101101.45;1790713;79;25611;-72
2022/03/06 04:30:59;;;;;;;20.62;12.60;;;;;;;-0.77;55.70;101105.95;1790871;80;26221;-72
2022/03/06 04:33:26;;;;;;;20.92;12.03;;;;;;;-0.76;55.84;101108.09;1768119;80;25632;-71
2022/03/06 04:35:52;;;;;;;19.15;11.97;;;;;;;-0.78;55.95;101107.50;1790774;79;27323;-72
2022/03/06 04:38:25;;;;;;;22.10;13.53;;;;;;;-0.80;56.02;101110.36;1791381;80;25857;-72
2022/03/06 04:40:53;;;;;;;21.33;13.32;;;;;;;-0.81;55.83;101105.27;1791542;80;25600;-71
2022/03/06 04:43:20;;;;;;;21.52;12.85;;;;;;;-0.83;55.86;101106.80;1790824;79;25785;-72
2022/03/06 04:45:46;;;;;;;21.82;13.78;;;;;;;-0.81;55.98;101110.05;1790904;80;25709;-72
2022/03/06 04:48:12;;;;;;;19.62;12.47;;;;;;;-0.82;56.15;101112.42;1790847;79;27316;-72
2022/03/06 04:50:39;;;;;;;20.30;12.40;;;;;;;-0.83;56.37;101103.34;1790805;80;25668;-72
2022/03/06 04:53:05;;;;;;;23.55;13.50;;;;;;;-0.82;56.64;101106.27;1790912;80;25405;-72
2022/03/06 04:55:32;;;;;;;21.90;13.80;;;;;;;-0.84;56.82;101104.34;1790832;80;25585;-72
2022/03/06 04:57:58;;;;;;;28.35;13.98;;;;;;;-0.82;56.88;101102.29;1790938;80;25684;-72
2022/03/06 05:00:24;;;;;;;22.70;13.85;;;;;;;-0.82;56.63;101102.29;1790725;80;27498;-71
2022/03/06 05:02:51;;;;;;;21.12;13.62;;;;;;;-0.81;56.67;101106.06;1768607;80;25596;-71
2022/03/06 05:05:17;;;;;;;21.87;13.75;;;;;;;-0.81;57.01;101104.73;1790980;79;25464;-71
2022/03/06 05:07:44;;;;;;;20.97;13.45;;;;;;;-0.81;56.80;101096.77;1790683;80;25674;-71
2022/03/06 05:10:10;;;;;;;23.87;14.68;;;;;;;-0.81;56.96;101099.42;1792086;79;25618;-71
2022/03/06 05:12:40;;;;;;;21.20;13.30;;;;;;;-0.80;57.03;101098.90;1802045;79;27330;-70
2022/03/06 05:15:10;;;;;;;;;;;;;;;-0.79;56.81;101102.67;1804286;79;25404;-71
2022/03/06 05:17:41;;;;;;;21.52;12.80;;;;;;;-0.80;57.09;101102.39;1801730;79;25691;-71
2022/03/06 05:20:10;;;;;;;24.20;13.85;;;;;;;-0.81;57.18;101100.75;1776125;79;25650;-71
2022/03/06 05:22:38;;;;;;;26.80;14.43;;;;;;;-0.83;57.14;101100.68;1801898;79;25408;-71
2022/03/06 05:25:07;;;;;;;26.80;15.05;;;;;;;-0.69;57.18;101127.45;1801541;79;27299;-71
2022/03/06 05:27:33;;;;;;;24.70;14.43;;;;;;;-0.82;57.37;101103.12;1812027;79;25608;-71
2022/03/06 05:30:00;;;;;;;20.50;12.47;;;;;;;-0.82;57.36;101105.78;1811888;79;25549;-72
2022/03/06 05:32:26;;;;;;;22.75;15.03;;;;;;;-0.81;57.18;101094.63;1812101;79;25999;-69
2022/03/06 05:34:52;;;;;;;24.20;14.43;;;;;;;-0.82;57.41;101096.98;1812127;79;25437;-71
2022/03/06 05:37:19;;;;;;;21.60;14.05;;;;;;;-0.80;57.35;101093.59;1812003;79;27370;-70
2022/03/06 05:39:45;;;;;;;23.25;14.20;;;;;;;-0.80;57.46;101091.77;1812909;79;25804;-71
2022/03/06 05:42:11;;;;;;;22.58;14.00;;;;;;;-0.80;57.42;101095.75;1812228;79;25694;-71
2022/03/06 05:44:38;;;;;;;19.40;13.38;;;;;;;-0.78;57.32;101093.69;1812041;79;26180;-71
2022/03/06 05:47:05;;;;;;;21.65;12.60;;;;;;;-0.78;57.29;101087.05;1812245;79;25645;-71
2022/03/06 05:49:31;;;;;;;24.37;13.98;;;;;;;-0.74;57.15;101092.74;1775333;79;27390;-71
2022/03/06 05:51:57;;;;;;;34.25;14.00;;;;;;;-0.73;57.29;101096.20;1812074;79;25630;-71
2022/03/06 05:54:24;;;;;;;22.30;13.38;;;;;;;-0.73;57.31;101095.72;1812349;79;25647;-71
2022/03/06 05:56:50;;;;;;;25.57;13.72;;;;;;;-0.69;57.50;101101.41;1812202;79;25779;-71
2022/03/06 05:59:16;;;;;;;20.43;13.93;;;;;;;-0.67;57.82;101096.69;1804062;79;25708;-71
2022/03/06 06:01:42;;;;;;;18.40;12.23;;;;;;;-0.65;57.68;101094.63;1775381;79;28070;-71
2022/03/06 06:04:09;;;;;;;20.45;12.68;;;;;;;-0.64;57.08;101091.76;1799502;79;25694;-71
2022/03/06 06:06:35;;;;;;;18.67;12.73;;;;;;;-0.61;56.79;101096.65;1801773;79;25653;-70
2022/03/06 06:09:02;;;;;;;20.15;14.07;;;;;;;-0.58;56.87;101090.08;1802903;79;25625;-70
2022/03/06 06:11:29;;;;;;;22.65;12.82;;;;;;;-0.54;56.78;101087.30;1797685;79;25660;-70
2022/03/06 06:13:55;;;;;;;20.30;13.48;;;;;;;-0.50;56.74;101089.02;1790973;80;27474;-71
2022/03/06 06:16:22;;;;;;;24.07;13.78;;;;;;;-0.46;56.88;101088.37;1790878;80;25666;-72
2022/03/06 06:18:48;;;;;;;20.27;13.13;;;;;;;-0.42;57.14;101084.77;1791006;80;25672;-71
2022/03/06 06:21:16;;;;;;;20.52;12.63;;;;;;;-0.37;57.18;101079.61;1790872;79;25649;-72
2022/03/06 06:23:43;;;;;;;20.65;13.45;;;;;;;-0.31;57.24;101083.24;1791134;80;25630;-71
2022/03/06 06:26:09;;;;;;;22.55;13.18;;;;;;;-0.26;57.13;101076.75;1768538;80;27406;-71
2022/03/06 06:28:36;;;;;;;19.65;12.78;;;;;;;-0.22;57.08;101072.65;1790743;80;26379;-71
2022/03/06 06:31:02;;;;;;;21.15;12.70;;;;;;;-0.16;57.01;101070.43;1791030;79;25484;-72
2022/03/06 06:33:29;;;;;;;16.82;11.33;;;;;;;-0.11;56.78;101071.11;1790992;79;25630;-71
2022/03/06 06:35:56;;;;;;;15.58;11.00;;;;;;;-0.09;56.31;101059.20;1791028;80;25450;-71
2022/03/06 06:38:24;;;;;;;14.75;10.72;;;;;;;-0.06;55.14;101057.97;1791470;79;28248;-71
2022/03/06 06:40:51;;;;;;;18.65;10.93;;;;;;;-0.03;55.48;101066.32;1791794;79;25433;-71
2022/03/06 06:43:19;;;;;;;20.25;10.93;;;;;;;0.03;55.50;101063.29;1790922;80;25436;-71
2022/03/06 06:45:47;;;;;;;16.32;10.63;;;;;;;0.09;55.60;101062.95;1790983;79;25549;-71
2022/03/06 06:48:14;;;;;;;14.68;9.68;;;;;;;0.15;55.18;101068.70;1791057;80;25721;-71
2022/03/06 06:50:41;;;;;;;14.93;10.15;;;;;;;0.22;55.13;101066.78;1790851;80;27368;-72
2022/03/06 06:53:07;;;;;;;12.98;9.60;;;;;;;0.27;54.45;101066.92;1790970;80;25753;-71
2022/03/06 06:55:35;;;;;;;12.18;9.30;;;;;;;0.32;54.28;101072.43;1791004;79;25393;-71
2022/03/06 06:58:05;;;;;;;19.32;10.50;;;;;;;0.37;53.81;101063.76;1790817;80;26291;-71
2022/03/06 07:00:32;;;;;;;15.20;10.48;;;;;;;0.39;53.32;101063.02;1790970;80;25598;-71
2022/03/06 07:02:58;;;;;;;13.70;9.70;;;;;;;0.41;53.24;101064.95;1791096;80;28021;-71
2022/03/06 07:05:25;;;;;;;16.57;11.20;;;;;;;0.44;53.15;101068.48;1790770;80;25608;-71
2022/03/06 07:07:53;;;;;;;22.17;11.60;;;;;;;0.44;52.75;101069.81;1791060;79;25620;-71
2022/03/06 07:10:21;;;;;;;17.87;11.48;;;;;;;0.46;52.41;101071.76;1792130;80;25651;-70
2022/03/06 07:12:53;;;;;;;17.37;10.90;;;;;;;0.51;52.43;101069.73;1790872;79;25670;-71
2022/03/06 07:15:19;;;;;;;20.10;11.50;;;;;;;0.50;51.63;101068.94;1790820;80;28005;-71
2022/03/06 07:17:45;;;;;;;15.40;10.63;;;;;;;0.50;51.37;101066.27;1790906;80;25676;-72
2022/03/06 07:20:12;;;;;;;17.95;11.10;;;;;;;0.50;51.43;101066.27;1790830;79;25636;-71
2022/03/06 07:22:39;;;;;;;16.57;10.25;;;;;;;0.55;50.96;101071.74;1791018;80;25629;-71
2022/03/06 07:25:07;;;;;;;13.62;9.15;;;;;;;0.53;51.25;101072.48;1791057;79;25433;-71
2022/03/06 07:27:33;;;;;;;13.58;9.20;;;;;;;0.55;50.84;101066.95;1790755;80;27283;-71
2022/03/06 07:30:00;;;;;;;12.88;9.15;;;;;;;0.55;50.72;101074.41;1790929;80;25655;-71
2022/03/06 07:32:26;;;;;;;14.40;9.83;;;;;;;0.61;51.19;101070.55;1790885;79;25460;-71
2022/03/06 07:34:53;;;;;;;12.10;8.25;;;;;;;0.70;51.37;101066.04;1790895;80;25630;-71
2022/03/06 07:37:19;;;;;;;11.57;8.20;;;;;;;0.79;51.08;101062.55;1790599;79;25509;-71
2022/03/06 07:39:45;;;;;;;12.37;8.65;;;;;;;0.89;50.99;101061.48;1782599;79;27229;-72
2022/03/06 07:42:12;;;;;;;25.55;14.00;;;;;;;1.01;50.79;101067.39;1759427;81;25656;-72
2022/03/06 07:44:38;;;;;;;12.30;8.55;;;;;;;1.10;50.53;101069.48;1759721;81;25632;-72
2022/03/06 07:47:06;;;;;;;12.30;8.18;;;;;;;1.23;50.29;101065.03;1759625;81;25583;-71
2022/03/06 07:49:32;;;;;;;11.30;8.00;;;;;;;1.34;49.94;101070.89;1759460;81;25719;-71
2022/03/06 07:51:59;;;;;;;11.15;8.65;;;;;;;1.44;49.57;101066.34;1759626;81;27371;-70
2022/03/06 07:54:25;;;;;;;28.40;15.08;;;;;;;1.48;48.95;101064.34;1759659;81;25622;-71
2022/03/06 07:56:52;;;;;;;22.00;12.33;;;;;;;1.54;48.69;101065.80;1759515;81;25623;-71
2022/03/06 07:59:21;;;;;;;10.50;8.15;;;;;;;1.63;48.85;101070.54;1759421;81;25780;-71
2022/03/06 08:01:46;;;;;;;11.03;8.45;;;;;;;1.72;48.72;101068.38;1759500;81;25683;-72
2022/03/06 08:04:13;;;;;;;12.93;8.50;;;;;;;1.83;48.46;101058.74;1759545;81;27378;-72
2022/03/06 08:06:39;;;;;;;13.25;8.40;;;;;;;1.89;47.28;101062.33;1759576;81;25796;-72
2022/03/06 08:09:09;;;;;;;12.90;9.00;;;;;;;1.86;47.23;101061.75;1760489;81;25648;-72
2022/03/06 08:11:54;;;;;;;12.28;8.93;;;;;;;1.94;47.61;101060.61;1758627;80;25647;-72
2022/03/06 08:14:21;;;;;;;12.13;8.55;;;;;;;2.05;47.34;101064.30;1744860;80;25448;-71
2022/03/06 08:16:47;;;;;;;13.35;9.28;;;;;;;2.21;47.68;101064.94;1768842;81;27330;-71
2022/03/06 08:19:14;;;;;;;11.00;8.38;;;;;;;2.67;48.01;101065.05;1769973;81;25712;-73
2022/03/06 08:21:42;;;;;;;11.50;8.23;;;;;;;3.25;47.09;101062.38;1778384;79;25720;-73
2022/03/06 08:24:09;;;;;;;10.85;7.70;;;;;;;3.71;46.42;101055.93;1780491;79;26228;-73
2022/03/06 08:26:37;;;;;;;12.80;8.13;;;;;;;4.25;45.68;101062.03;1776859;79;25623;-72
2022/03/06 08:29:03;;;;;;;12.20;8.10;;;;;;;4.62;45.33;101062.77;1801618;79;27895;-72
2022/03/06 08:31:30;;;;;;;9.60;6.83;;;;;;;4.81;43.57;101066.47;1801186;79;25654;-72
2022/03/06 08:33:56;;;;;;;10.20;7.08;;;;;;;4.71;43.37;101069.83;1801520;79;25622;-72
2022/03/06 08:36:23;;;;;;;10.70;7.40;;;;;;;4.67;42.74;101068.19;1801543;79;26152;-72
2022/03/06 08:38:49;;;;;;;12.95;8.30;;;;;;;4.97;43.34;101069.60;1802618;79;25753;-71
2022/03/06 08:41:16;;;;;;;13.35;8.45;;;;;;;5.69;43.67;101066.22;1775577;79;27341;-73
2022/03/06 08:43:43;;;;;;;22.85;12.88;;;;;;;6.44;43.70;101062.12;1788240;79;25527;-71
2022/03/06 08:46:09;;;;;;;12.50;9.05;;;;;;;7.03;42.31;101067.70;1769301;81;25745;-71
2022/03/06 08:48:37;;;;;;;10.13;7.92;;;;;;;7.18;41.56;101063.41;1769303;80;26547;-72
2022/03/06 08:51:05;;;;;;;11.25;7.20;;;;;;;7.27;41.21;101060.44;1769407;80;25627;-72
2022/03/06 08:53:32;;;;;;;10.23;7.42;;;;;;;7.38;40.73;101056.69;1769404;80;27316;-72
2022/03/06 08:56:00;;;;;;;10.05;7.45;;;;;;;7.48;40.25;101059.94;1776742;79;25833;-72
2022/03/06 08:58:27;;;;;;;10.05;7.97;;;;;;;7.54;39.83;101061.53;1787651;79;25589;-71
2022/03/06 09:00:54;;;;;;;10.45;7.42;;;;;;;7.85;39.53;101064.23;1788175;79;25729;-72
2022/03/06 09:03:21;;;;;;;10.10;7.97;;;;;;;7.77;38.87;101062.08;1799803;79;25630;-71
2022/03/06 09:05:47;;;;;;;9.88;6.70;;;;;;;7.53;38.21;101059.14;1799752;79;27406;-70
2022/03/06 09:08:14;;;;;;;10.10;7.33;;;;;;;7.05;37.48;101058.02;1799897;79;25577;-71
2022/03/06 09:10:41;;;;;;;9.38;6.95;;;;;;;6.87;38.35;101061.45;1799702;79;25704;-72
2022/03/06 09:13:08;;;;;;;10.32;7.72;;;;;;;6.81;38.36;101061.70;1798048;79;25633;-70
2022/03/06 09:15:37;;;;;;;11.68;7.80;;;;;;;6.80;38.24;101060.91;1726242;83;25757;-70
2022/03/06 09:18:04;;;;;;;13.30;9.10;;;;;;;6.60;37.84;101055.46;1732779;82;27406;-70
2022/03/06 09:20:31;;;;;;;12.70;7.60;;;;;;;6.38;38.16;101059.67;1726270;83;26317;-71
2022/03/06 09:22:57;;;;;;;9.73;7.15;;;;;;;6.20;37.87;101059.05;1732963;82;25637;-70
2022/03/06 09:25:24;;;;;;;9.48;7.30;;;;;;;6.04;38.22;101056.80;1732829;82;26177;-71
2022/03/06 09:27:51;;;;;;;9.53;7.25;;;;;;;5.98;38.58;101051.14;1726054;83;25707;-71
2022/03/06 09:30:17;;;;;;;10.75;8.08;;;;;;;5.98;38.44;101052.48;1733237;82;27931;-71
2022/03/06 09:32:44;;;;;;;11.22;7.90;;;;;;;5.87;38.63;101046.73;1726340;83;25395;-71
2022/03/06 09:35:11;;;;;;;18.70;11.05;;;;;;;5.81;38.67;101040.53;1733133;82;25770;-70
2022/03/06 09:37:37;;;;;;;87.12;42.13;;;;;;;5.71;38.82;101042.60;1726174;83;25641;-70
2022/03/06 09:40:06;;;;;;;11.28;9.38;;;;;;;5.64;38.75;101043.36;1733499;82;25616;-70
2022/03/06 09:42:33;;;;;;;9.93;8.08;;;;;;;5.58;38.57;101043.87;1726529;83;27392;-70
2022/03/06 09:45:08;;;;;;;10.45;7.25;;;;;;;5.59;38.82;101040.64;1732798;82;25716;-70
2022/03/06 09:47:37;;;;;;;10.08;7.33;;;;;;;5.62;39.03;101038.79;1726387;83;25651;-70
2022/03/06 09:50:07;;;;;;;10.60;8.03;;;;;;;5.70;39.10;101038.28;1732832;82;26177;-70
2022/03/06 09:52:33;;;;;;;;;;;;;;;5.69;38.75;101039.91;1710211;83;25726;-69
2022/03/06 09:55:00;;;;;;;11.15;8.10;;;;;;;5.74;38.54;101031.89;1733150;82;27986;-70
2022/03/06 09:57:29;;;;;;;12.93;8.70;;;;;;;5.77;38.77;101034.04;1726173;83;25726;-69
2022/03/06 09:59:55;;;;;;;13.15;8.15;;;;;;;5.87;38.93;101034.65;1733206;82;25597;-70
2022/03/06 10:02:22;;;;;;;10.72;7.37;;;;;;;6.33;39.99;101029.55;1796913;79;25691;-70
2022/03/06 10:04:50;;;;;;;11.50;7.87;;;;;;;6.93;38.33;101028.67;1797323;79;25674;-69
2022/03/06 10:07:21;;;;;;;9.23;7.75;;;;;;;6.99;37.70;101027.59;1797328;79;28021;-71
2022/03/06 10:09:54;;;;;;;12.25;8.70;;;;;;;7.02;37.45;101030.30;1798188;79;25659;-70
2022/03/06 10:12:27;;;;;;;11.63;8.45;;;;;;;7.03;37.23;101033.24;1726320;82;25656;-70
2022/03/06 10:14:59;;;;;;;11.43;8.20;;;;;;;6.97;36.80;101029.75;1733432;82;26493;-70
2022/03/06 10:17:29;;;;;;;8.63;7.55;;;;;;;6.88;37.03;101021.40;1732879;82;25670;-71
2022/03/06 10:20:05;;;;;;;17.87;11.10;;;;;;;6.80;37.01;101019.22;1797301;79;27308;-72
2022/03/06 10:22:35;;;;;;;10.90;9.18;;;;;;;6.71;37.01;101018.14;1796908;79;25717;-71
2022/03/06 10:25:07;;;;;;;;;;;;;;;6.56;36.95;101022.12;1799920;79;25741;-69
2022/03/06 10:27:53;;;;;;;9.65;7.45;;;;;;;6.50;37.04;101015.91;1796784;79;25631;-70
2022/03/06 10:30:32;;;;;;;11.70;8.03;;;;;;;6.55;37.31;101018.61;1726054;83;25655;-70
2022/03/06 10:33:03;;;;;;;10.63;7.80;;;;;;;6.70;37.31;101011.13;1732853;81;28093;-71
2022/03/06 10:35:39;;;;;;;10.50;8.43;;;;;;;7.21;37.01;101014.44;1717950;82;25669;-71
2022/03/06 10:38:27;;;;;;;9.08;7.35;;;;;;;8.25;37.82;101007.81;1713738;82;25818;-71
2022/03/06 10:41:13;;;;;;;10.35;7.70;;;;;;;9.63;36.47;101002.84;1707777;82;25724;-71
2022/03/06 10:43:41;;;;;;;10.55;7.70;;;;;;;9.77;34.92;101004.88;1734370;82;25582;-70
2022/03/06 10:46:17;;;;;;;9.68;7.83;;;;;;;9.73;34.31;101006.00;1760311;81;27500;-70
2022/03/06 10:48:57;;;;;;;14.05;8.40;;;;;;;9.57;34.19;100999.95;1731245;81;25739;-70
2022/03/06 10:51:25;;;;;;;12.93;8.08;;;;;;;9.42;34.45;101002.23;1732384;81;25703;-71
2022/03/06 10:53:57;;;;;;;12.20;8.43;;;;;;;9.21;34.29;100995.39;1722814;81;27194;-70
2022/03/06 10:56:26;;;;;;;11.05;8.83;;;;;;;8.90;33.47;100991.02;1721535;81;26270;-71
2022/03/06 10:58:54;;;;;;;11.12;8.35;;;;;;;8.37;32.83;100989.42;1736370;82;27385;-70
2022/03/06 11:01:21;;;;;;;20.72;12.23;;;;;;;7.80;33.88;100986.13;1732865;81;25695;-70
2022/03/06 11:03:51;;;;;;;33.98;18.90;;;;;;;7.55;34.45;100986.98;1804345;78;26264;-69
2022/03/06 11:06:19;;;;;;;;;;;;;;;7.38;34.81;100988.06;1819189;78;26312;-70
2022/03/06 11:08:46;;;;;;;11.25;8.45;;;;;;;7.21;35.10;100992.38;1795527;78;25709;-69
2022/03/06 11:11:14;;;;;;;10.78;7.87;;;;;;;7.04;35.24;100984.56;1759993;80;28836;-70
2022/03/06 11:13:40;;;;;;;12.20;8.60;;;;;;;6.94;34.98;100985.09;1800949;78;26957;-71
2022/03/06 11:16:07;;;;;;;13.70;8.90;;;;;;;6.81;35.16;100982.37;1793430;78;25665;-71
2022/03/06 11:18:34;;;;;;;11.70;8.83;;;;;;;6.67;35.42;100979.40;1742902;82;25739;-71
2022/03/06 11:21:02;;;;;;;12.82;8.28;;;;;;;6.54;35.65;100981.52;1734982;82;25628;-71